Time;durP1;ratioP1;P1;durP2;ratioP2;P2;SDS_P1;SDS_P2;PMS_P1;PMS_P2;Temp;Humidity;BMP_temperature;BMP_pressure;BME280_temperature;BME280_humidity;BME280_pressure;Samples;Min_cycle;Max_cycle;Signal;HPM_P1;HPM_P2
2022/03/26 00:02:19;;;;;;;10.35;5.88;;;;;;;;;;5045041;28;20518;-73
2022/03/26 00:04:45;;;;;;;9.98;5.85;;;;;;;;;;5044779;28;20022;-72
2022/03/26 00:07:11;;;;;;;10.55;5.97;;;;;;;;;;5050214;28;20035;-72
2022/03/26 00:09:37;;;;;;;10.02;5.75;;;;;;;;;;5062420;28;20052;-72
2022/03/26 00:12:04;;;;;;;11.52;5.72;;;;;;;;;;5044965;28;20130;-72
2022/03/26 00:14:30;;;;;;;11.63;6.40;;;;;;;;;;5047349;28;20033;-72
2022/03/26 00:16:56;;;;;;;11.40;6.35;;;;;;;;;;5044499;28;20014;-71
2022/03/26 00:19:22;;;;;;;11.85;5.65;;;;;;;;;;5048339;28;20036;-72
2022/03/26 00:21:48;;;;;;;9.85;6.32;;;;;;;;;;5050931;28;20025;-72
2022/03/26 00:24:15;;;;;;;12.32;5.95;;;;;;;;;;5048345;28;20039;-72
2022/03/26 00:26:41;;;;;;;11.73;6.60;;;;;;;;;;5048617;28;20033;-72
2022/03/26 00:29:08;;;;;;;12.40;6.47;;;;;;;;;;5034988;28;20483;-73
2022/03/26 00:31:36;;;;;;;10.63;6.60;;;;;;;;;;5036003;28;20052;-73
2022/03/26 00:34:02;;;;;;;11.65;6.65;;;;;;;;;;5033267;28;20104;-74
2022/03/26 00:36:28;;;;;;;11.68;6.40;;;;;;;;;;5031332;28;20017;-73
2022/03/26 00:38:54;;;;;;;11.85;6.07;;;;;;;;;;5037536;28;20073;-73
2022/03/26 00:41:20;;;;;;;13.38;6.60;;;;;;;;;;5042331;28;20039;-73
2022/03/26 00:43:46;;;;;;;11.82;6.32;;;;;;;;;;5042614;28;20026;-73
2022/03/26 00:46:13;;;;;;;10.43;5.95;;;;;;;;;;5047615;28;20047;-73
2022/03/26 00:48:39;;;;;;;11.10;6.40;;;;;;;;;;5045450;28;20024;-73
2022/03/26 00:51:05;;;;;;;9.57;5.75;;;;;;;;;;5042647;28;20035;-73
2022/03/26 00:53:31;;;;;;;11.77;6.20;;;;;;;;;;5043604;28;20434;-73
2022/03/26 00:55:57;;;;;;;11.68;5.55;;;;;;;;;;5043805;28;20099;-73
2022/03/26 00:58:23;;;;;;;10.90;5.95;;;;;;;;;;5046673;28;20017;-73
2022/03/26 01:00:49;;;;;;;9.32;5.40;;;;;;;;;;5047569;28;20047;-73
2022/03/26 01:03:17;;;;;;;9.93;6.10;;;;;;;;;;5043307;28;20029;-73
2022/03/26 01:05:44;;;;;;;9.32;6.00;;;;;;;;;;5043715;28;20551;-73
2022/03/26 01:08:10;;;;;;;9.73;6.28;;;;;;;;;;5044507;28;20037;-73
2022/03/26 01:10:36;;;;;;;10.82;6.18;;;;;;;;;;5043713;28;20026;-73
2022/03/26 01:13:02;;;;;;;13.27;5.88;;;;;;;;;;5051855;28;20085;-73
2022/03/26 01:15:28;;;;;;;12.23;5.75;;;;;;;;;;5043551;28;20044;-73
2022/03/26 01:17:54;;;;;;;13.07;6.10;;;;;;;;;;5043230;28;20017;-73
2022/03/26 01:20:20;;;;;;;10.90;6.03;;;;;;;;;;5043050;28;20556;-73
2022/03/26 01:22:47;;;;;;;9.48;5.90;;;;;;;;;;5043899;28;20014;-73
2022/03/26 01:25:13;;;;;;;9.70;6.03;;;;;;;;;;5048640;28;20147;-73
2022/03/26 01:27:39;;;;;;;11.05;6.20;;;;;;;;;;5046564;28;20032;-73
2022/03/26 01:30:06;;;;;;;9.90;5.75;;;;;;;;;;5042992;28;20044;-73
2022/03/26 01:32:32;;;;;;;8.93;5.43;;;;;;;;;;5043234;28;20056;-73
2022/03/26 01:34:58;;;;;;;11.60;6.28;;;;;;;;;;5040599;28;20064;-73
2022/03/26 01:37:24;;;;;;;9.18;5.63;;;;;;;;;;5044786;28;20029;-73
2022/03/26 01:39:51;;;;;;;10.43;5.38;;;;;;;;;;5048523;28;20476;-73
2022/03/26 01:42:17;;;;;;;10.13;5.07;;;;;;;;;;5043070;28;20051;-73
2022/03/26 01:44:43;;;;;;;9.10;5.60;;;;;;;;;;5042542;28;20116;-73
2022/03/26 01:47:09;;;;;;;9.77;5.10;;;;;;;;;;5042796;28;20048;-73
2022/03/26 01:49:35;;;;;;;9.02;5.93;;;;;;;;;;5043060;28;20059;-73
2022/03/26 01:52:02;;;;;;;9.02;5.68;;;;;;;;;;5050914;28;20024;-73
2022/03/26 01:54:28;;;;;;;10.50;6.13;;;;;;;;;;5047605;28;20041;-72
2022/03/26 01:56:55;;;;;;;10.75;5.85;;;;;;;;;;5038406;28;20021;-73
2022/03/26 01:59:21;;;;;;;10.52;5.88;;;;;;;;;;5041696;28;20029;-73
2022/03/26 02:01:48;;;;;;;10.02;5.97;;;;;;;;;;5043144;28;20022;-73
2022/03/26 02:04:14;;;;;;;10.18;5.68;;;;;;;;;;5048165;28;20560;-73
2022/03/26 02:06:41;;;;;;;8.38;5.55;;;;;;;;;;5048230;28;20512;-72
2022/03/26 02:09:11;;;;;;;12.30;5.35;;;;;;;;;;5039214;28;20655;-73
2022/03/26 02:11:38;;;;;;;12.40;5.70;;;;;;;;;;5043099;28;20067;-72
2022/03/26 02:14:07;;;;;;;10.70;5.90;;;;;;;;;;5044052;28;20041;-72
2022/03/26 02:16:32;;;;;;;;;;;;;;;;;;5016588;28;20020;-72
2022/03/26 02:18:59;;;;;;;10.23;5.18;;;;;;;;;;5054508;28;20360;-72
2022/03/26 02:21:25;;;;;;;9.77;5.45;;;;;;;;;;5043887;28;20436;-72
2022/03/26 02:23:52;;;;;;;11.43;5.70;;;;;;;;;;5041687;28;20099;-73
2022/03/26 02:26:25;;;;;;;10.57;5.50;;;;;;;;;;5046666;28;20499;-73
2022/03/26 02:28:51;;;;;;;12.38;6.25;;;;;;;;;;5046982;28;20032;-72
2022/03/26 02:31:18;;;;;;;11.45;5.70;;;;;;;;;;5051122;28;20048;-73
2022/03/26 02:33:43;;;;;;;11.45;6.20;;;;;;;;;;5049888;28;20033;-73
2022/03/26 02:36:10;;;;;;;10.68;5.75;;;;;;;;;;5046827;28;20469;-73
2022/03/26 02:38:37;;;;;;;9.80;5.68;;;;;;;;;;5046694;28;20024;-73
2022/03/26 02:41:03;;;;;;;11.63;5.60;;;;;;;;;;5046666;28;20499;-73
2022/03/26 02:43:29;;;;;;;9.38;5.65;;;;;;;;;;5047650;28;20026;-72
2022/03/26 02:45:56;;;;;;;9.88;5.82;;;;;;;;;;5053345;28;20028;-72
2022/03/26 02:48:22;;;;;;;9.45;5.60;;;;;;;;;;5046687;28;20760;-73
2022/03/26 02:50:48;;;;;;;10.50;5.45;;;;;;;;;;5046219;28;20021;-72
2022/03/26 02:53:14;;;;;;;10.10;5.57;;;;;;;;;;5046980;28;20396;-72
2022/03/26 02:55:40;;;;;;;10.40;5.60;;;;;;;;;;5046525;28;20448;-72
2022/03/26 02:58:10;;;;;;;10.93;5.47;;;;;;;;;;5053065;28;20021;-73
2022/03/26 03:00:37;;;;;;;10.63;5.82;;;;;;;;;;5049722;28;20146;-73
2022/03/26 03:03:04;;;;;;;9.43;5.57;;;;;;;;;;5046126;28;20025;-73
2022/03/26 03:05:30;;;;;;;10.13;5.53;;;;;;;;;;5045809;28;20591;-72
2022/03/26 03:07:57;;;;;;;8.98;5.35;;;;;;;;;;5046182;28;20539;-73
2022/03/26 03:10:23;;;;;;;11.85;5.78;;;;;;;;;;5048473;28;20067;-74
2022/03/26 03:12:49;;;;;;;10.68;5.85;;;;;;;;;;5050756;28;20487;-73
2022/03/26 03:15:19;;;;;;;12.60;6.22;;;;;;;;;;5045863;28;20503;-73
2022/03/26 03:17:46;;;;;;;12.98;6.22;;;;;;;;;;5045966;28;20028;-73
2022/03/26 03:20:12;;;;;;;11.52;5.72;;;;;;;;;;5045621;28;20055;-73
2022/03/26 03:22:39;;;;;;;9.82;5.80;;;;;;;;;;5046023;28;20126;-73
2022/03/26 03:25:06;;;;;;;9.73;5.90;;;;;;;;;;5052947;28;20108;-72
2022/03/26 03:27:32;;;;;;;10.77;5.40;;;;;;;;;;5047941;28;20073;-73
2022/03/26 03:29:59;;;;;;;9.57;5.60;;;;;;;;;;5047305;28;20017;-72
2022/03/26 03:32:26;;;;;;;13.43;6.28;;;;;;;;;;5045156;28;20052;-72
2022/03/26 03:34:51;;;;;;;10.82;5.50;;;;;;;;;;5045218;28;20034;-72
2022/03/26 03:37:18;;;;;;;11.60;5.30;;;;;;;;;;5050319;28;20025;-73
2022/03/26 03:39:44;;;;;;;9.80;5.45;;;;;;;;;;5049144;28;20025;-72
2022/03/26 03:42:11;;;;;;;10.63;5.55;;;;;;;;;;5045358;28;20079;-72
2022/03/26 03:44:37;;;;;;;12.27;5.78;;;;;;;;;;5045145;28;20049;-73
2022/03/26 03:47:04;;;;;;;10.73;5.78;;;;;;;;;;5045266;28;20040;-72
2022/03/26 03:49:33;;;;;;;11.18;5.85;;;;;;;;;;5045452;28;20022;-72
2022/03/26 03:51:59;;;;;;;8.63;5.55;;;;;;;;;;5053117;28;20469;-72
2022/03/26 03:54:25;;;;;;;11.05;5.90;;;;;;;;;;5044602;28;20037;-73
2022/03/26 03:56:52;;;;;;;9.35;5.93;;;;;;;;;;5044767;28;20024;-72
2022/03/26 03:59:18;;;;;;;10.48;5.75;;;;;;;;;;5045628;28;20033;-74
2022/03/26 04:01:44;;;;;;;11.45;5.88;;;;;;;;;;5045220;28;20029;-72
2022/03/26 04:04:10;;;;;;;8.25;5.18;;;;;;;;;;5050859;28;20021;-72
2022/03/26 04:06:37;;;;;;;9.35;5.55;;;;;;;;;;5047552;28;20028;-72
2022/03/26 04:09:03;;;;;;;9.70;5.85;;;;;;;;;;5044234;28;20163;-72
2022/03/26 04:11:29;;;;;;;11.25;5.97;;;;;;;;;;5044134;28;20028;-72
2022/03/26 04:13:55;;;;;;;9.85;5.80;;;;;;;;;;5044973;28;20040;-72
2022/03/26 04:16:21;;;;;;;10.02;5.95;;;;;;;;;;5048810;28;20052;-72
2022/03/26 04:18:48;;;;;;;10.30;5.25;;;;;;;;;;5049594;28;20060;-72
2022/03/26 04:21:14;;;;;;;14.00;6.25;;;;;;;;;;5046141;28;20037;-72
2022/03/26 04:23:40;;;;;;;9.70;5.90;;;;;;;;;;5044453;28;20033;-72
2022/03/26 04:26:07;;;;;;;10.77;6.00;;;;;;;;;;5044370;28;20029;-71
2022/03/26 04:28:33;;;;;;;10.50;6.07;;;;;;;;;;5013722;28;20025;-71
2022/03/26 04:30:59;;;;;;;11.80;5.45;;;;;;;;;;5052306;28;20124;-73
2022/03/26 04:33:25;;;;;;;11.32;6.03;;;;;;;;;;5044302;28;20108;-73
2022/03/26 04:35:51;;;;;;;9.93;5.53;;;;;;;;;;5043678;28;20079;-71
2022/03/26 04:38:17;;;;;;;8.82;5.55;;;;;;;;;;5045512;28;20037;-73
2022/03/26 04:40:43;;;;;;;10.30;5.97;;;;;;;;;;5044592;28;20054;-73
2022/03/26 04:43:09;;;;;;;13.25;5.80;;;;;;;;;;5050407;28;20028;-72
2022/03/26 04:45:35;;;;;;;10.40;5.93;;;;;;;;;;5046098;28;20029;-72
2022/03/26 04:48:01;;;;;;;11.70;5.97;;;;;;;;;;5044473;28;20055;-72
2022/03/26 04:50:27;;;;;;;9.65;5.85;;;;;;;;;;5043834;28;20067;-71
2022/03/26 04:52:53;;;;;;;9.63;5.82;;;;;;;;;;5043749;28;20029;-71
2022/03/26 04:55:19;;;;;;;10.93;6.25;;;;;;;;;;5048429;28;20074;-71
2022/03/26 04:57:48;;;;;;;10.38;5.65;;;;;;;;;;5047834;28;20025;-72
2022/03/26 05:00:14;;;;;;;10.00;5.22;;;;;;;;;;5043577;28;20029;-72
2022/03/26 05:02:40;;;;;;;11.15;5.82;;;;;;;;;;5043826;28;20168;-72
2022/03/26 05:05:07;;;;;;;12.40;5.88;;;;;;;;;;5044122;28;20107;-72
2022/03/26 05:07:46;;;;;;;9.48;5.72;;;;;;;;;;5012323;28;20025;-72
2022/03/26 05:10:12;;;;;;;;;;;;;;;;;;5059818;28;20457;-71
2022/03/26 05:12:38;;;;;;;10.18;5.32;;;;;;;;;;5045998;28;19924;-71
2022/03/26 05:15:04;;;;;;;12.15;5.97;;;;;;;;;;5043672;28;20037;-71
2022/03/26 05:17:30;;;;;;;9.95;6.05;;;;;;;;;;5043407;28;20123;-71
2022/03/26 05:19:56;;;;;;;9.75;5.90;;;;;;;;;;5043977;28;20388;-71
2022/03/26 05:22:22;;;;;;;10.90;5.50;;;;;;;;;;5045264;28;20037;-73
2022/03/26 05:24:48;;;;;;;18.58;5.82;;;;;;;;;;5049536;28;20044;-72
2022/03/26 05:27:14;;;;;;;11.90;6.13;;;;;;;;;;5041692;28;20033;-73
2022/03/26 05:29:40;;;;;;;13.38;6.22;;;;;;;;;;5043025;28;20025;-72
2022/03/26 05:32:06;;;;;;;8.52;5.30;;;;;;;;;;5043485;28;20044;-72
2022/03/26 05:34:33;;;;;;;10.95;6.05;;;;;;;;;;5043745;28;20048;-72
2022/03/26 05:36:59;;;;;;;10.13;5.90;;;;;;;;;;5050746;28;20021;-73
2022/03/26 05:39:25;;;;;;;10.45;6.10;;;;;;;;;;5035084;28;20172;-74
2022/03/26 05:41:51;;;;;;;11.02;6.38;;;;;;;;;;5040402;28;20029;-73
2022/03/26 05:44:17;;;;;;;10.27;6.50;;;;;;;;;;5042065;28;20048;-73
2022/03/26 05:46:43;;;;;;;10.10;6.20;;;;;;;;;;5043360;28;20022;-73
2022/03/26 05:49:09;;;;;;;9.85;5.68;;;;;;;;;;5048903;28;20036;-72
2022/03/26 05:51:36;;;;;;;10.07;6.10;;;;;;;;;;5045026;28;20021;-74
2022/03/26 05:54:02;;;;;;;11.43;6.60;;;;;;;;;;5041742;28;20132;-72
2022/03/26 05:56:28;;;;;;;11.55;6.47;;;;;;;;;;5043150;28;20092;-73
2022/03/26 05:58:54;;;;;;;13.32;6.22;;;;;;;;;;5043226;28;20145;-73
2022/03/26 06:01:21;;;;;;;10.85;6.25;;;;;;;;;;5047273;28;20043;-72
2022/03/26 06:03:47;;;;;;;13.50;6.20;;;;;;;;;;5046922;28;20464;-72
2022/03/26 06:06:14;;;;;;;10.00;5.95;;;;;;;;;;5044299;28;20274;-73
2022/03/26 06:08:40;;;;;;;10.00;6.40;;;;;;;;;;5042060;28;20035;-72
2022/03/26 06:11:05;;;;;;;11.35;6.38;;;;;;;;;;5043250;28;20029;-72
2022/03/26 06:13:31;;;;;;;10.30;6.30;;;;;;;;;;5043339;28;20021;-72
2022/03/26 06:15:58;;;;;;;10.20;5.85;;;;;;;;;;5049929;28;20029;-72
2022/03/26 06:18:23;;;;;;;10.82;5.97;;;;;;;;;;5043152;28;20032;-73
2022/03/26 06:20:50;;;;;;;11.57;6.15;;;;;;;;;;5042788;28;20029;-73
2022/03/26 06:23:16;;;;;;;9.07;5.28;;;;;;;;;;5035253;28;20133;-73
2022/03/26 06:25:42;;;;;;;9.88;6.10;;;;;;;;;;5042976;28;20038;-73
2022/03/26 06:28:08;;;;;;;11.30;6.20;;;;;;;;;;5047224;28;20025;-72
2022/03/26 06:30:34;;;;;;;14.20;7.00;;;;;;;;;;5044363;28;20175;-72
2022/03/26 06:33:00;;;;;;;9.98;6.10;;;;;;;;;;5042588;28;20027;-72
2022/03/26 06:35:27;;;;;;;10.05;6.55;;;;;;;;;;5043923;28;20584;-70
2022/03/26 06:37:54;;;;;;;11.23;6.55;;;;;;;;;;5042996;28;20100;-68
2022/03/26 06:40:20;;;;;;;10.52;5.88;;;;;;;;;;5045261;28;20403;-72
2022/03/26 06:42:46;;;;;;;11.02;6.30;;;;;;;;;;5040832;28;20431;-71
2022/03/26 06:45:12;;;;;;;11.80;6.55;;;;;;;;;;5037384;28;20108;-71
2022/03/26 06:47:39;;;;;;;10.13;6.28;;;;;;;;;;5040475;28;20029;-72
2022/03/26 06:50:05;;;;;;;10.20;6.15;;;;;;;;;;5042001;28;20069;-72
2022/03/26 06:52:31;;;;;;;9.20;5.95;;;;;;;;;;5043384;28;20032;-72
2022/03/26 06:54:57;;;;;;;14.43;8.65;;;;;;;;;;5049539;28;20112;-72
2022/03/26 06:57:23;;;;;;;11.57;7.20;;;;;;;;;;5029976;28;20424;-73
2022/03/26 06:59:49;;;;;;;14.38;8.10;;;;;;;;;;5035366;28;20463;-72
2022/03/26 07:02:15;;;;;;;12.30;8.18;;;;;;;;;;5041570;28;20184;-72
2022/03/26 07:04:41;;;;;;;13.27;7.57;;;;;;;;;;5038948;28;20030;-73
2022/03/26 07:07:07;;;;;;;11.55;7.53;;;;;;;;;;5048159;28;20857;-72
2022/03/26 07:09:33;;;;;;;13.00;7.38;;;;;;;;;;5042057;28;20036;-72
2022/03/26 07:11:59;;;;;;;13.90;7.75;;;;;;;;;;5042374;28;20132;-72
2022/03/26 07:14:25;;;;;;;9.50;7.10;;;;;;;;;;5040394;28;20124;-73
2022/03/26 07:16:51;;;;;;;12.35;7.45;;;;;;;;;;5041341;28;20113;-73
2022/03/26 07:19:17;;;;;;;13.13;7.30;;;;;;;;;;5043925;28;20059;-72
2022/03/26 07:21:43;;;;;;;10.55;6.93;;;;;;;;;;5044131;28;20087;-72
2022/03/26 07:24:09;;;;;;;9.25;6.68;;;;;;;;;;5046640;28;20033;-72
2022/03/26 07:26:35;;;;;;;12.63;7.15;;;;;;;;;;5045888;28;20025;-72
2022/03/26 07:29:02;;;;;;;8.68;7.00;;;;;;;;;;5033827;28;20120;-67
2022/03/26 07:31:28;;;;;;;10.40;7.18;;;;;;;;;;5046251;28;20050;-72
2022/03/26 07:33:54;;;;;;;10.35;7.20;;;;;;;;;;5051998;28;20033;-72
2022/03/26 07:36:20;;;;;;;9.85;7.15;;;;;;;;;;5034203;28;20029;-71
2022/03/26 07:38:46;;;;;;;11.52;7.65;;;;;;;;;;5023956;28;20036;-67
2022/03/26 07:41:12;;;;;;;12.85;7.93;;;;;;;;;;5018240;28;20037;-68
2022/03/26 07:43:38;;;;;;;12.32;7.93;;;;;;;;;;5013835;28;20183;-69
2022/03/26 07:46:04;;;;;;;10.52;7.70;;;;;;;;;;5016564;28;20459;-72
2022/03/26 07:48:30;;;;;;;10.48;7.95;;;;;;;;;;5026955;28;20018;-74
2022/03/26 07:50:56;;;;;;;11.23;8.15;;;;;;;;;;5022493;28;20121;-70
2022/03/26 07:53:22;;;;;;;10.63;7.57;;;;;;;;;;5017750;28;20108;-68
2022/03/26 07:55:49;;;;;;;11.23;7.70;;;;;;;;;;5030613;28;20128;-68
2022/03/26 07:58:15;;;;;;;10.77;8.02;;;;;;;;;;5015280;28;20577;-68
2022/03/26 08:00:41;;;;;;;11.32;7.80;;;;;;;;;;5017017;28;20034;-67
2022/03/26 08:03:08;;;;;;;10.32;7.30;;;;;;;;;;5023628;28;20123;-65
2022/03/26 08:05:34;;;;;;;11.07;7.53;;;;;;;;;;5039735;28;20092;-65
2022/03/26 08:08:00;;;;;;;12.32;8.10;;;;;;;;;;5016848;28;20485;-65
2022/03/26 08:10:27;;;;;;;10.48;7.72;;;;;;;;;;5028732;28;20130;-66
2022/03/26 08:12:53;;;;;;;11.45;7.80;;;;;;;;;;5016107;28;20385;-66
2022/03/26 08:15:19;;;;;;;11.20;7.93;;;;;;;;;;5016282;28;20390;-65
2022/03/26 08:17:45;;;;;;;12.32;8.02;;;;;;;;;;5032233;28;20373;-66
2022/03/26 08:20:11;;;;;;;10.00;7.45;;;;;;;;;;5016614;28;20100;-66
2022/03/26 08:22:38;;;;;;;12.32;7.85;;;;;;;;;;5012354;28;20028;-67
2022/03/26 08:25:05;;;;;;;10.10;7.45;;;;;;;;;;5014824;28;20109;-67
2022/03/26 08:27:31;;;;;;;10.80;7.78;;;;;;;;;;5025121;28;20027;-68
2022/03/26 08:29:57;;;;;;;11.70;7.70;;;;;;;;;;5020427;28;20026;-68
2022/03/26 08:32:23;;;;;;;11.05;7.93;;;;;;;;;;5031095;28;20542;-68
2022/03/26 08:34:49;;;;;;;11.43;7.53;;;;;;;;;;5013543;28;20053;-65
2022/03/26 08:37:15;;;;;;;11.30;8.00;;;;;;;;;;5013546;28;20022;-65
2022/03/26 08:39:42;;;;;;;10.32;7.80;;;;;;;;;;5030142;28;20500;-66
2022/03/26 08:42:08;;;;;;;12.02;7.72;;;;;;;;;;5016180;28;20044;-66
2022/03/26 08:44:34;;;;;;;11.52;8.23;;;;;;;;;;5015301;28;20026;-65
2022/03/26 08:47:02;;;;;;;12.88;8.35;;;;;;;;;;5015989;28;20018;-65
2022/03/26 08:49:29;;;;;;;10.93;8.45;;;;;;;;;;5028741;28;20164;-65
2022/03/26 08:51:55;;;;;;;10.45;8.15;;;;;;;;;;5031901;28;20320;-65
2022/03/26 08:54:21;;;;;;;12.43;7.65;;;;;;;;;;5041649;28;20056;-64
2022/03/26 08:56:47;;;;;;;12.65;7.90;;;;;;;;;;5043375;28;20029;-65
2022/03/26 08:59:13;;;;;;;10.02;7.75;;;;;;;;;;5043401;28;20060;-68
2022/03/26 09:01:39;;;;;;;11.68;8.00;;;;;;;;;;5044084;28;20093;-66
2022/03/26 09:04:06;;;;;;;10.88;7.95;;;;;;;;;;5049711;28;20025;-65
2022/03/26 09:06:32;;;;;;;12.57;8.05;;;;;;;;;;5042869;28;20021;-64
2022/03/26 09:08:59;;;;;;;12.27;7.80;;;;;;;;;;5041008;28;20029;-67
2022/03/26 09:11:25;;;;;;;10.70;8.45;;;;;;;;;;5043347;28;20119;-66
2022/03/26 09:13:51;;;;;;;11.93;7.78;;;;;;;;;;5043199;28;20109;-66
2022/03/26 09:16:17;;;;;;;14.15;8.65;;;;;;;;;;5048546;28;20473;-66
2022/03/26 09:18:43;;;;;;;11.43;8.00;;;;;;;;;;5047213;28;20056;-66
2022/03/26 09:21:11;;;;;;;13.25;8.90;;;;;;;;;;5043410;28;20053;-65
2022/03/26 09:23:37;;;;;;;12.50;8.40;;;;;;;;;;5043043;28;20449;-66
2022/03/26 09:26:04;;;;;;;12.25;8.73;;;;;;;;;;5043658;28;20103;-66
2022/03/26 09:28:30;;;;;;;13.95;8.50;;;;;;;;;;5043802;28;20538;-66
2022/03/26 09:30:56;;;;;;;11.20;7.97;;;;;;;;;;5038578;28;20049;-66
2022/03/26 09:33:22;;;;;;;13.77;8.70;;;;;;;;;;5031514;28;20083;-68
2022/03/26 09:35:48;;;;;;;16.83;8.35;;;;;;;;;;5037287;28;20036;-66
2022/03/26 09:38:14;;;;;;;14.90;9.35;;;;;;;;;;5042821;28;20104;-67
2022/03/26 09:40:42;;;;;;;12.95;8.60;;;;;;;;;;5043360;28;20022;-67
2022/03/26 09:43:08;;;;;;;12.52;8.60;;;;;;;;;;5048663;28;20025;-66
2022/03/26 09:45:34;;;;;;;11.30;8.27;;;;;;;;;;5044026;28;20037;-66
2022/03/26 09:48:00;;;;;;;12.15;8.00;;;;;;;;;;5041140;28;20031;-67
2022/03/26 09:50:26;;;;;;;12.70;7.88;;;;;;;;;;5041608;28;20044;-67
2022/03/26 09:52:52;;;;;;;10.60;8.20;;;;;;;;;;5042253;28;20037;-67
2022/03/26 09:55:21;;;;;;;13.23;8.80;;;;;;;;;;5044360;28;20036;-67
2022/03/26 09:57:47;;;;;;;10.35;8.25;;;;;;;;;;5045860;28;20050;-67
2022/03/26 10:00:14;;;;;;;13.35;8.50;;;;;;;;;;5042034;28;20472;-67
2022/03/26 10:02:40;;;;;;;12.80;7.97;;;;;;;;;;5043017;28;20092;-67
2022/03/26 10:05:08;;;;;;;11.38;7.90;;;;;;;;;;5043010;28;20033;-66
2022/03/26 10:07:34;;;;;;;13.15;8.38;;;;;;;;;;5012136;28;20388;-66
2022/03/26 10:10:02;;;;;;;11.38;7.78;;;;;;;;;;5049576;28;20025;-67
2022/03/26 10:12:28;;;;;;;;;;;;;;;;;;5043207;28;20079;-68
2022/03/26 10:14:58;;;;;;;12.45;8.15;;;;;;;;;;5042971;28;19963;-67
2022/03/26 10:17:28;;;;;;;11.32;8.77;;;;;;;;;;5043095;28;20025;-67
2022/03/26 10:19:57;;;;;;;12.93;8.25;;;;;;;;;;5043188;28;20068;-67
2022/03/26 10:22:23;;;;;;;11.95;8.65;;;;;;;;;;5041179;28;20036;-66
2022/03/26 10:24:49;;;;;;;10.90;7.75;;;;;;;;;;5047729;28;20017;-67
2022/03/26 10:27:16;;;;;;;11.43;7.68;;;;;;;;;;5042263;28;20033;-67
2022/03/26 10:29:53;;;;;;;10.10;7.80;;;;;;;;;;5042967;28;20032;-67
2022/03/26 10:32:39;;;;;;;15.50;8.70;;;;;;;;;;5042679;28;20544;-67
2022/03/26 10:35:06;;;;;;;12.00;8.13;;;;;;;;;;5046822;28;20293;-67
2022/03/26 10:37:42;;;;;;;12.38;8.32;;;;;;;;;;5015815;28;20031;-67
2022/03/26 10:40:24;;;;;;;12.77;8.60;;;;;;;;;;5052868;28;20459;-67
2022/03/26 10:42:58;;;;;;;14.25;8.38;;;;;;;;;;5053199;28;20029;-67
2022/03/26 10:45:24;;;;;;;12.50;8.95;;;;;;;;;;5046101;28;20568;-67
2022/03/26 10:47:53;;;;;;;13.27;8.52;;;;;;;;;;5046608;28;20032;-67
2022/03/26 10:50:19;;;;;;;14.85;9.35;;;;;;;;;;5047919;28;20032;-67
2022/03/26 10:52:45;;;;;;;17.02;9.18;;;;;;;;;;5046192;28;20026;-67
2022/03/26 10:55:18;;;;;;;14.15;10.85;;;;;;;;;;5050785;28;20516;-67
2022/03/26 10:57:46;;;;;;;12.85;10.10;;;;;;;;;;5060570;28;20025;-67
2022/03/26 11:00:17;;;;;;;17.98;13.32;;;;;;;;;;5046310;28;20504;-66
2022/03/26 11:02:43;;;;;;;16.83;11.98;;;;;;;;;;5046746;28;20032;-66
2022/03/26 11:05:10;;;;;;;21.55;15.05;;;;;;;;;;5047525;28;20029;-66
2022/03/26 11:07:36;;;;;;;18.85;14.48;;;;;;;;;;5045616;28;20029;-67
2022/03/26 11:10:06;;;;;;;20.13;16.02;;;;;;;;;;5053174;28;20115;-66
2022/03/26 11:12:33;;;;;;;20.33;15.48;;;;;;;;;;5048793;28;20029;-66
2022/03/26 11:15:00;;;;;;;19.73;14.43;;;;;;;;;;5045883;28;20037;-67
2022/03/26 11:17:26;;;;;;;20.98;14.52;;;;;;;;;;5046263;28;20274;-66
2022/03/26 11:20:05;;;;;;;20.20;13.75;;;;;;;;;;5046070;28;20059;-66
2022/03/26 11:22:51;;;;;;;18.60;14.02;;;;;;;;;;5047502;28;20053;-68
2022/03/26 11:25:24;;;;;;;19.85;14.90;;;;;;;;;;5022741;28;20106;-67
2022/03/26 11:28:00;;;;;;;20.17;14.93;;;;;;;;;;5050852;28;20028;-67
2022/03/26 11:30:41;;;;;;;21.63;15.40;;;;;;;;;;5045885;28;20076;-67
2022/03/26 11:33:11;;;;;;;22.60;14.65;;;;;;;;;;5047220;28;20108;-67
2022/03/26 11:35:49;;;;;;;17.95;13.45;;;;;;;;;;5045889;28;20524;-67
2022/03/26 11:38:15;;;;;;;18.13;13.52;;;;;;;;;;5044786;28;20032;-67
2022/03/26 11:40:50;;;;;;;24.33;14.57;;;;;;;;;;5045258;28;20375;-66
2022/03/26 11:43:39;;;;;;;18.85;13.73;;;;;;;;;;5050350;28;20021;-66
2022/03/26 11:51:37;;;;;;;17.08;12.45;;;;;;;;;;5049086;28;20055;-67
2022/03/26 11:54:16;;;;;;;17.45;13.02;;;;;;;;;;5044497;28;20032;-67
2022/03/26 11:56:43;;;;;;;18.15;13.15;;;;;;;;;;5044263;28;20031;-67
2022/03/26 11:59:26;;;;;;;18.05;13.45;;;;;;;;;;5044985;28;20025;-67
2022/03/26 12:01:53;;;;;;;17.48;11.88;;;;;;;;;;5045511;28;20105;-67
2022/03/26 12:04:20;;;;;;;18.95;12.98;;;;;;;;;;5049395;28;20079;-67
2022/03/26 12:06:49;;;;;;;18.52;12.73;;;;;;;;;;5050702;28;20112;-67
2022/03/26 12:09:34;;;;;;;18.08;12.38;;;;;;;;;;5042198;28;20362;-67
2022/03/26 12:12:14;;;;;;;16.38;11.55;;;;;;;;;;5044753;28;20039;-67
2022/03/26 12:14:59;;;;;;;15.63;11.75;;;;;;;;;;5045114;28;20033;-67
2022/03/26 12:17:44;;;;;;;15.20;11.10;;;;;;;;;;5045084;28;20033;-67
2022/03/26 12:20:22;;;;;;;15.82;12.45;;;;;;;;;;5044399;28;20032;-67
2022/03/26 12:22:52;;;;;;;20.73;12.50;;;;;;;;;;5046547;28;20480;-67
2022/03/26 12:25:31;;;;;;;17.17;12.38;;;;;;;;;;5049546;28;20032;-67
2022/03/26 12:27:57;;;;;;;15.63;11.25;;;;;;;;;;5051960;28;20032;-67
2022/03/26 12:30:25;;;;;;;18.17;11.88;;;;;;;;;;5044550;28;20049;-67
2022/03/26 12:32:51;;;;;;;16.10;12.07;;;;;;;;;;5044601;28;20586;-66
2022/03/26 12:35:18;;;;;;;18.88;11.80;;;;;;;;;;5044655;28;20036;-68
2022/03/26 12:37:49;;;;;;;15.48;11.13;;;;;;;;;;5044140;28;20029;-67
2022/03/26 12:40:16;;;;;;;16.70;11.75;;;;;;;;;;5049666;28;20059;-67
2022/03/26 12:42:42;;;;;;;17.48;11.93;;;;;;;;;;5047687;28;20427;-68
2022/03/26 12:45:16;;;;;;;14.95;10.88;;;;;;;;;;5044121;28;20040;-67
2022/03/26 12:47:45;;;;;;;16.85;12.48;;;;;;;;;;5043751;28;20027;-67
2022/03/26 12:50:12;;;;;;;14.98;11.27;;;;;;;;;;5044141;28;20029;-67
2022/03/26 12:52:39;;;;;;;18.15;11.25;;;;;;;;;;5043724;28;20507;-67
2022/03/26 12:55:05;;;;;;;18.92;11.95;;;;;;;;;;5051825;28;20029;-67
2022/03/26 13:00:23;;;;;;;14.45;10.93;;;;;;;;;;5043980;28;20079;-67
2022/03/26 13:03:05;;;;;;;17.88;11.18;;;;;;;;;;5044140;28;20420;-67
2022/03/26 13:05:32;;;;;;;16.67;11.43;;;;;;;;;;5043940;28;20029;-67
2022/03/26 13:07:58;;;;;;;12.73;10.60;;;;;;;;;;5043380;28;20037;-67
2022/03/26 13:10:34;;;;;;;13.48;10.40;;;;;;;;;;5046063;28;20103;-67
2022/03/26 13:13:01;;;;;;;17.15;11.02;;;;;;;;;;5051872;28;20037;-67
2022/03/26 13:15:27;;;;;;;16.90;11.90;;;;;;;;;;5043859;28;20036;-67
2022/03/26 13:17:56;;;;;;;15.18;10.57;;;;;;;;;;5043204;28;20100;-67
2022/03/26 13:20:29;;;;;;;13.65;10.20;;;;;;;;;;5043243;28;20029;-67
2022/03/26 13:23:00;;;;;;;13.63;10.57;;;;;;;;;;5043492;28;20030;-67
2022/03/26 13:25:31;;;;;;;15.40;10.20;;;;;;;;;;5046396;28;20083;-65
2022/03/26 13:28:12;;;;;;;14.10;10.32;;;;;;;;;;5050396;28;20416;-66
2022/03/26 13:30:38;;;;;;;14.20;9.98;;;;;;;;;;5046591;28;20072;-66
2022/03/26 13:33:05;;;;;;;14.55;10.07;;;;;;;;;;5043577;28;20500;-66
2022/03/26 13:35:35;;;;;;;15.25;11.43;;;;;;;;;;5043429;28;20113;-66
2022/03/26 13:38:11;;;;;;;16.83;11.13;;;;;;;;;;5043119;28;20028;-67
2022/03/26 13:40:38;;;;;;;14.20;11.20;;;;;;;;;;5012625;28;20025;-66
2022/03/26 13:43:04;;;;;;;13.85;10.60;;;;;;;;;;5051400;28;20033;-67
2022/03/26 13:45:30;;;;;;;14.38;10.45;;;;;;;;;;5043546;28;20025;-67
2022/03/26 13:47:57;;;;;;;13.55;10.50;;;;;;;;;;5044848;28;20025;-66
2022/03/26 13:50:23;;;;;;;12.70;9.15;;;;;;;;;;5044210;28;20754;-68
2022/03/26 13:52:51;;;;;;;12.98;10.48;;;;;;;;;;5042892;28;20445;-66
2022/03/26 13:55:30;;;;;;;16.63;10.20;;;;;;;;;;5048026;28;20055;-66
2022/03/26 13:57:58;;;;;;;14.00;9.57;;;;;;;;;;5049772;28;20527;-66
2022/03/26 14:00:25;;;;;;;14.05;9.52;;;;;;;;;;5042914;28;20032;-66
2022/03/26 14:02:51;;;;;;;15.82;9.48;;;;;;;;;;5043061;28;20032;-66
2022/03/26 14:05:17;;;;;;;15.10;10.35;;;;;;;;;;5042631;28;20060;-66
2022/03/26 14:07:43;;;;;;;18.38;10.73;;;;;;;;;;5043259;28;20084;-66
2022/03/26 14:10:11;;;;;;;14.15;10.32;;;;;;;;;;5047952;28;20432;-66
2022/03/26 14:12:37;;;;;;;13.90;10.00;;;;;;;;;;5045986;28;20057;-66
2022/03/26 14:15:03;;;;;;;15.73;10.27;;;;;;;;;;5042645;28;20312;-67
2022/03/26 14:17:29;;;;;;;16.00;11.07;;;;;;;;;;5043313;28;20108;-66
2022/03/26 14:19:55;;;;;;;16.92;10.98;;;;;;;;;;5042409;28;20109;-66
2022/03/26 14:22:21;;;;;;;15.02;10.15;;;;;;;;;;5045500;28;20477;-66
2022/03/26 14:24:47;;;;;;;13.60;10.07;;;;;;;;;;5048920;28;20539;-66
2022/03/26 14:27:13;;;;;;;14.57;10.35;;;;;;;;;;5046813;28;20026;-66
2022/03/26 14:29:39;;;;;;;12.38;10.20;;;;;;;;;;5035582;28;20032;-66
2022/03/26 14:32:05;;;;;;;15.02;10.10;;;;;;;;;;5042645;28;20048;-66
2022/03/26 14:34:31;;;;;;;13.90;10.50;;;;;;;;;;5044050;28;20037;-67
2022/03/26 14:36:57;;;;;;;14.38;10.38;;;;;;;;;;5049867;28;20017;-67
2022/03/26 14:39:23;;;;;;;14.48;10.45;;;;;;;;;;5041933;28;20028;-67
2022/03/26 14:41:49;;;;;;;14.40;10.35;;;;;;;;;;5042673;28;20033;-66